createdAt,value
2019-06-08T00:00:48.855Z,100441.11
2019-06-08T00:03:22.650Z,100441.16
2019-06-08T00:05:55.750Z,100452.28
2019-06-08T00:08:28.634Z,100440.45
2019-06-08T00:11:01.725Z,100445.28
2019-06-08T00:13:36.361Z,100437.75
2019-06-08T00:16:09.129Z,100439.83
2019-06-08T00:18:41.804Z,100433.57
2019-06-08T00:21:15.505Z,100435.75
2019-06-08T00:23:48.606Z,100437.55
2019-06-08T00:26:22.078Z,100431.83
2019-06-08T00:28:56.010Z,100431.86
2019-06-08T00:31:28.992Z,100429.23
2019-06-08T00:34:01.982Z,100435.52
2019-06-08T00:36:34.864Z,100444.39
2019-06-08T00:39:10.410Z,100439.15
2019-06-08T00:41:43.087Z,100448.91
2019-06-08T00:44:17.049Z,100450.28
2019-06-08T00:46:49.880Z,100447.64
2019-06-08T00:49:22.741Z,100449.36
2019-06-08T00:51:55.548Z,100450.74
2019-06-08T00:54:29.755Z,100451.61
2019-06-08T00:57:02.749Z,100446.34
2019-06-08T00:59:35.327Z,100452.07
2019-06-08T01:02:08.415Z,100457.80
2019-06-08T01:04:41.006Z,100456.91
2019-06-08T01:07:13.879Z,100453.39
2019-06-08T01:09:46.972Z,100449.41
2019-06-08T01:12:20.491Z,100445.45
2019-06-08T01:14:53.964Z,100445.47
2019-06-08T01:17:27.459Z,100443.67
2019-06-08T01:20:00.345Z,100448.99
2019-06-08T01:22:33.128Z,100450.34
2019-06-08T01:25:06.851Z,100457.03
2019-06-08T01:27:39.509Z,100449.52
2019-06-08T01:30:13.009Z,100456.13
2019-06-08T01:32:45.685Z,100464.98
2019-06-08T01:35:18.678Z,100460.59
2019-06-08T01:37:51.216Z,100456.63
2019-06-08T01:40:25.293Z,100456.16
2019-06-08T01:42:57.853Z,100450.41
2019-06-08T01:45:32.926Z,100448.17
2019-06-08T01:48:19.230Z,100448.16
2019-06-08T01:50:41.920Z,100452.55
2019-06-08T01:53:14.905Z,100447.67
2019-06-08T01:55:47.789Z,100448.16
2019-06-08T01:58:20.469Z,100456.58
2019-06-08T02:00:52.703Z,100454.84
2019-06-08T02:03:26.257Z,100457.98
2019-06-08T02:05:59.128Z,100459.72
2019-06-08T02:08:32.645Z,100464.09
2019-06-08T02:11:05.672Z,100463.20
2019-06-08T02:13:38.804Z,100460.54
2019-06-08T02:16:13.625Z,100464.49
2019-06-08T02:18:50.768Z,100465.35
2019-06-08T02:21:20.631Z,100462.69
2019-06-08T02:23:54.944Z,100474.17
2019-06-08T02:26:41.415Z,100478.58
2019-06-08T02:29:15.869Z,100475.91
2019-06-08T02:31:50.285Z,100480.33
2019-06-08T02:34:25.137Z,100479.00
2019-06-08T02:36:58.306Z,100475.07
2019-06-08T02:39:44.914Z,100477.23
2019-06-08T02:42:19.228Z,100482.59
2019-06-08T02:44:53.037Z,100479.06
2019-06-08T02:47:28.428Z,100483.47
2019-06-08T02:50:03.521Z,100490.09
2019-06-08T02:52:48.335Z,100482.11
2019-06-08T02:55:33.062Z,100485.60
2019-06-08T02:58:08.991Z,100486.97
2019-06-08T03:00:43.722Z,100501.06
2019-06-08T03:03:18.822Z,100500.61
2019-06-08T03:05:53.183Z,100503.27
2019-06-08T03:08:42.104Z,100508.05
2019-06-08T03:11:17.477Z,100513.77
2019-06-08T03:13:53.919Z,100508.83
2019-06-08T03:16:28.777Z,100517.17
2019-06-08T03:19:19.919Z,100516.67
2019-06-08T03:21:40.598Z,100524.21
2019-06-08T03:24:14.574Z,100517.98
2019-06-08T03:26:48.916Z,100524.52
2019-06-08T03:29:32.535Z,100513.75
2019-06-08T03:32:05.657Z,100526.57
2019-06-08T03:34:45.979Z,100526.98
2019-06-08T03:37:13.149Z,100518.48
2019-06-08T03:39:46.137Z,100517.48
2019-06-08T03:42:19.121Z,100524.48
2019-06-08T03:44:52.013Z,100527.04
2019-06-08T03:47:24.705Z,100528.18
2019-06-08T03:49:57.897Z,100524.58
2019-06-08T03:52:31.076Z,100526.72
2019-06-08T03:55:04.053Z,100531.97
2019-06-08T03:57:38.203Z,100526.59
2019-06-08T04:00:13.626Z,100533.67
2019-06-08T04:02:47.717Z,100540.68
2019-06-08T04:05:20.509Z,100539.35
2019-06-08T04:07:53.124Z,100538.44
2019-06-08T04:10:25.970Z,100533.08
2019-06-08T04:12:58.952Z,100535.30
2019-06-08T04:15:31.839Z,100534.38
2019-06-08T04:18:04.721Z,100534.78
2019-06-08T04:20:37.982Z,100535.92
2019-06-08T04:23:11.217Z,100542.00
2019-06-08T04:25:45.048Z,100549.37
2019-06-08T04:28:18.727Z,100548.25
2019-06-08T04:30:51.708Z,100536.47
2019-06-08T04:33:24.691Z,100543.20
2019-06-08T04:35:58.801Z,100538.52
2019-06-08T04:38:31.587Z,100537.33
2019-06-08T04:41:04.134Z,100540.27
2019-06-08T04:43:38.476Z,100555.50
2019-06-08T04:46:11.362Z,100553.72
2019-06-08T04:48:45.351Z,100561.77
2019-06-08T04:51:18.804Z,100564.20
2019-06-08T04:53:51.651Z,100554.77
2019-06-08T04:56:24.329Z,100568.70
2019-06-08T04:58:56.618Z,100575.38
2019-06-08T05:01:28.851Z,100580.06
2019-06-08T05:04:01.159Z,100580.77
2019-06-08T05:06:33.825Z,100576.83
2019-06-08T05:09:09.117Z,100583.66
2019-06-08T05:11:43.147Z,100594.48
2019-06-08T05:14:15.739Z,100592.31
2019-06-08T05:16:49.727Z,100603.80
2019-06-08T05:19:23.154Z,100608.55
2019-06-08T05:21:55.835Z,100612.56
2019-06-08T05:24:28.327Z,100624.20
2019-06-08T05:27:00.885Z,100629.09
2019-06-08T05:29:33.564Z,100623.60
2019-06-08T05:32:05.795Z,100627.00
2019-06-08T05:34:39.343Z,100630.19
2019-06-08T05:37:11.909Z,100627.23
2019-06-08T05:39:45.554Z,100629.95
2019-06-08T05:42:18.023Z,100631.23
2019-06-08T05:44:50.672Z,100634.88
2019-06-08T05:47:23.450Z,100638.38
2019-06-08T05:49:56.225Z,100643.16
2019-06-08T05:52:28.908Z,100643.22
2019-06-08T05:55:01.896Z,100631.88
2019-06-08T05:57:35.292Z,100636.84
2019-06-08T06:00:13.025Z,100644.77
2019-06-08T06:02:46.970Z,100636.35
2019-06-08T06:05:19.983Z,100646.76
2019-06-08T06:07:52.876Z,100650.25
2019-06-08T06:10:26.907Z,100646.44
2019-06-08T06:12:59.463Z,100638.58
2019-06-08T06:15:32.442Z,100649.58
2019-06-08T06:18:04.681Z,100654.22
2019-06-08T06:20:37.901Z,100666.16
2019-06-08T06:23:10.601Z,100669.41
2019-06-08T06:25:43.419Z,100673.88
2019-06-08T06:28:16.350Z,100678.33
2019-06-08T06:30:50.105Z,100688.68
2019-06-08T06:33:23.246Z,100674.75
2019-06-08T06:35:55.923Z,100694.19
2019-06-08T06:38:28.599Z,100705.00
2019-06-08T06:41:00.986Z,100692.23
2019-06-08T06:43:34.574Z,100712.18
2019-06-08T06:46:07.354Z,100705.27
2019-06-08T06:48:39.965Z,100701.95
2019-06-08T06:51:25.273Z,100709.33
2019-06-08T06:53:46.601Z,100705.77
2019-06-08T06:56:19.303Z,100711.20
2019-06-08T06:58:51.982Z,100702.61
2019-06-08T07:01:24.665Z,100701.13
2019-06-08T07:03:57.599Z,100699.47
2019-06-08T07:06:30.350Z,100705.47
2019-06-08T07:09:03.009Z,100704.05
2019-06-08T07:11:36.007Z,100708.18
2019-06-08T07:14:08.977Z,100701.98
2019-06-08T07:16:41.575Z,100702.41
2019-06-08T07:19:14.339Z,100699.62
2019-06-08T07:21:48.291Z,100707.96
2019-06-08T07:24:21.746Z,100713.73
2019-06-08T07:26:54.643Z,100731.90
2019-06-08T07:29:27.319Z,100732.19
2019-06-08T07:31:59.991Z,100746.53
2019-06-08T07:34:32.873Z,100744.17
2019-06-08T07:37:05.604Z,100739.24
2019-06-08T07:39:38.550Z,100747.16
2019-06-08T07:42:11.320Z,100744.36
2019-06-08T07:44:44.408Z,100750.83
2019-06-08T07:47:17.290Z,100758.77
2019-06-08T07:49:51.137Z,100769.59
2019-06-08T07:52:23.879Z,100767.08
2019-06-08T07:54:56.966Z,100764.81
2019-06-08T07:57:29.751Z,100767.15
2019-06-08T08:00:09.122Z,100771.77
2019-06-08T08:02:37.259Z,100779.48
2019-06-08T08:05:10.291Z,100772.13
2019-06-08T08:07:43.026Z,100768.44
2019-06-08T08:10:16.503Z,100787.05
2019-06-08T08:12:49.314Z,100790.50
2019-06-08T08:15:23.319Z,100792.67
2019-06-08T08:17:57.673Z,100786.80
2019-06-08T08:20:30.931Z,100789.65
2019-06-08T08:23:06.195Z,100801.91
2019-06-08T08:25:38.017Z,100795.41
2019-06-08T08:28:10.917Z,100793.45
2019-06-08T08:30:43.794Z,100804.95
2019-06-08T08:33:18.435Z,100802.44
2019-06-08T08:35:52.212Z,100819.37
2019-06-08T08:38:27.315Z,100812.66
2019-06-08T08:41:06.857Z,100820.44
2019-06-08T08:43:34.769Z,100815.90
2019-06-08T08:46:07.764Z,100824.44
2019-06-08T08:48:40.744Z,100826.20
2019-06-08T08:51:13.730Z,100836.89
2019-06-08T08:53:48.140Z,100828.21
2019-06-08T08:56:21.138Z,100841.85
2019-06-08T08:58:56.559Z,100848.80
2019-06-08T09:01:29.364Z,100858.97
2019-06-08T09:04:04.979Z,100855.70
2019-06-08T09:06:38.090Z,100853.95
2019-06-08T09:09:10.642Z,100857.47
2019-06-08T09:11:43.893Z,100852.73
2019-06-08T09:14:18.635Z,100865.31
2019-06-08T09:16:52.649Z,100876.21
2019-06-08T09:19:27.906Z,100884.16
2019-06-08T09:22:02.734Z,100891.63
2019-06-08T09:24:38.792Z,100878.02
2019-06-08T09:27:11.926Z,100887.17
2019-06-08T09:29:44.717Z,100906.22
2019-06-08T09:32:18.012Z,100906.58
2019-06-08T09:34:52.923Z,100904.23
2019-06-08T09:37:25.301Z,100896.48
2019-06-08T09:39:58.979Z,100905.59
2019-06-08T09:42:32.069Z,100902.74
2019-06-08T09:45:11.919Z,100911.72
2019-06-08T09:47:44.582Z,100926.09
2019-06-08T09:50:18.675Z,100934.23
2019-06-08T09:53:06.022Z,100939.08
2019-06-08T09:55:25.365Z,100939.64
2019-06-08T09:58:01.954Z,100948.52
2019-06-08T10:00:32.281Z,100944.81
2019-06-08T10:03:07.132Z,100950.41
2019-06-08T10:05:39.798Z,100956.02
2019-06-08T10:08:12.476Z,100967.10
2019-06-08T10:10:45.159Z,100960.41
2019-06-08T10:13:18.979Z,100958.52
2019-06-08T10:15:51.863Z,100959.70
2019-06-08T10:18:24.794Z,100961.61
2019-06-08T10:21:00.662Z,100961.83
2019-06-08T10:23:34.644Z,100969.13
2019-06-08T10:26:06.787Z,100969.91
2019-06-08T10:28:39.646Z,100977.36
2019-06-08T10:31:12.326Z,100986.63
2019-06-08T10:33:48.021Z,100979.00
2019-06-08T10:36:19.630Z,100992.17
2019-06-08T10:38:52.302Z,100987.58
2019-06-08T10:41:27.655Z,100996.02
2019-06-08T10:43:59.344Z,100996.73
2019-06-08T10:46:31.980Z,100999.34
2019-06-08T10:49:08.477Z,100996.48
2019-06-08T10:51:40.805Z,100995.52
2019-06-08T10:54:14.223Z,100990.55
2019-06-08T10:56:48.564Z,100996.94
2019-06-08T10:59:21.108Z,101014.66
2019-06-08T11:01:54.109Z,101015.00
2019-06-08T11:04:28.692Z,101014.75
2019-06-08T11:07:07.216Z,101021.08
2019-06-08T11:09:35.258Z,101023.20
2019-06-08T11:12:14.328Z,101020.30
2019-06-08T11:14:41.716Z,101010.75
2019-06-08T11:17:14.379Z,101030.91
2019-06-08T11:19:48.036Z,101023.19
2019-06-08T11:22:20.858Z,101024.73
2019-06-08T11:24:53.565Z,101024.59
2019-06-08T11:27:28.538Z,101036.16
2019-06-08T11:30:01.745Z,101033.59
2019-06-08T11:32:34.418Z,101042.61
2019-06-08T11:35:12.348Z,101053.86
2019-06-08T11:37:45.245Z,101049.00
2019-06-08T11:40:20.769Z,101048.65
2019-06-08T11:42:54.998Z,101053.00
2019-06-08T11:45:27.689Z,101060.37
2019-06-08T11:48:00.545Z,101066.43
2019-06-08T11:50:42.095Z,101065.20
2019-06-08T11:53:17.846Z,101067.12
2019-06-08T11:55:51.069Z,101065.95
2019-06-08T11:58:28.325Z,101064.14
2019-06-08T12:01:10.024Z,101066.53
2019-06-08T12:03:39.803Z,101069.48
2019-06-08T12:06:14.215Z,101069.52
2019-06-08T12:08:47.323Z,101069.88
2019-06-08T12:11:22.995Z,101064.70
2019-06-08T12:13:54.800Z,101057.37
2019-06-08T12:16:28.296Z,101059.59
2019-06-08T12:19:01.822Z,101061.78
2019-06-08T12:21:34.522Z,101062.97
2019-06-08T12:24:08.273Z,101060.34
2019-06-08T12:26:40.884Z,101060.52
2019-06-08T12:29:14.978Z,101061.82
2019-06-08T12:31:47.863Z,101056.45
2019-06-08T12:34:20.120Z,101058.19
2019-06-08T12:36:53.313Z,101060.19
2019-06-08T12:39:28.174Z,101062.81
2019-06-08T12:42:00.626Z,101060.99
2019-06-08T12:44:33.309Z,101056.88
2019-06-08T12:47:07.981Z,101058.80
2019-06-08T12:49:40.494Z,101056.41
2019-06-08T12:52:14.514Z,101055.64
2019-06-08T12:54:59.297Z,101052.52
2019-06-08T12:57:22.173Z,101046.30
2019-06-08T12:59:54.893Z,101047.98
2019-06-08T13:02:28.088Z,101042.41
2019-06-08T13:05:00.923Z,101046.55
2019-06-08T13:07:34.253Z,101048.72
2019-06-08T13:10:08.859Z,101038.89
2019-06-08T13:12:41.686Z,101039.32
2019-06-08T13:15:14.769Z,101039.71
2019-06-08T13:17:47.783Z,101038.05
2019-06-08T13:20:23.249Z,101045.27
2019-06-08T13:22:57.567Z,101040.70
2019-06-08T13:25:39.659Z,101044.47
2019-06-08T13:28:04.398Z,101044.92
2019-06-08T13:30:39.012Z,101043.28
2019-06-08T13:33:12.009Z,101046.33
2019-06-08T13:35:47.827Z,101048.86
2019-06-08T13:38:21.750Z,101047.86
2019-06-08T13:40:53.738Z,101038.81
2019-06-08T13:43:26.427Z,101046.22
2019-06-08T13:45:59.095Z,101039.75
2019-06-08T13:48:31.800Z,101040.59
2019-06-08T13:51:04.467Z,101040.17
2019-06-08T13:53:38.310Z,101038.42
2019-06-08T13:56:11.159Z,101045.38
2019-06-08T13:58:43.830Z,101049.66
2019-06-08T14:01:17.656Z,101043.30
2019-06-08T14:03:50.837Z,101044.16
2019-06-08T14:06:24.902Z,101038.38
2019-06-08T14:08:58.962Z,101040.10
2019-06-08T14:11:31.631Z,101058.19
2019-06-08T14:14:04.316Z,101053.70
2019-06-08T14:16:38.922Z,101054.73
2019-06-08T14:19:11.299Z,101054.73
2019-06-08T14:21:44.002Z,101055.62
2019-06-08T14:24:24.105Z,101043.16
2019-06-08T14:26:53.242Z,101039.84
2019-06-08T14:29:28.977Z,101042.58
2019-06-08T14:32:01.463Z,101051.95
2019-06-08T14:34:34.142Z,101058.97
2019-06-08T14:37:08.638Z,101068.16
2019-06-08T14:39:41.131Z,101071.09
2019-06-08T14:42:13.591Z,101075.91
2019-06-08T14:44:47.934Z,101076.38
2019-06-08T14:47:20.942Z,101086.10
2019-06-08T14:49:53.909Z,101075.75
2019-06-08T14:52:29.718Z,101089.53
2019-06-08T14:55:00.904Z,101082.18
2019-06-08T14:57:33.587Z,101073.95
2019-06-08T15:00:12.193Z,101074.89
2019-06-08T15:02:43.029Z,101068.86
2019-06-08T15:05:19.451Z,101066.66
2019-06-08T15:07:51.158Z,101064.14
2019-06-08T15:10:23.839Z,101057.17
2019-06-08T15:12:57.745Z,101064.75
2019-06-08T15:15:32.188Z,101074.86
2019-06-08T15:18:07.796Z,101055.30
2019-06-08T15:20:39.564Z,101063.34
2019-06-08T15:23:12.245Z,101066.22
2019-06-08T15:25:45.033Z,101070.64
2019-06-08T15:28:18.212Z,101062.86
2019-06-08T15:30:51.205Z,101072.67
2019-06-08T15:33:24.895Z,101063.03
2019-06-08T15:35:57.697Z,101079.35
2019-06-08T15:38:32.417Z,101079.81
2019-06-08T15:41:04.681Z,101081.40
2019-06-08T15:43:39.576Z,101088.11
2019-06-08T15:46:11.170Z,101084.66
2019-06-08T15:48:43.766Z,101080.73
2019-06-08T15:51:16.425Z,101091.91
2019-06-08T15:53:49.109Z,101095.57
2019-06-08T15:56:35.591Z,101092.65
2019-06-08T15:58:56.002Z,101097.16
2019-06-08T16:01:29.403Z,101100.50
2019-06-08T16:04:04.155Z,101104.30
2019-06-08T16:06:36.505Z,101102.79
2019-06-08T16:09:10.466Z,101106.25
2019-06-08T16:11:43.094Z,101112.22
2019-06-08T16:14:15.822Z,101120.50
2019-06-08T16:16:49.380Z,101113.57
2019-06-08T16:19:23.423Z,101120.96
2019-06-08T16:21:56.167Z,101123.19
2019-06-08T16:24:29.771Z,101112.77
2019-06-08T16:27:02.747Z,101119.97
2019-06-08T16:29:35.431Z,101125.16
2019-06-08T16:32:08.325Z,101131.77
2019-06-08T16:34:41.038Z,101130.95
2019-06-08T16:37:13.714Z,101144.25
2019-06-08T16:39:46.354Z,101132.24
2019-06-08T16:42:19.021Z,101134.23
2019-06-08T16:44:51.916Z,101150.20
2019-06-08T16:47:24.587Z,101147.42
2019-06-08T16:49:57.282Z,101134.17
2019-06-08T16:52:30.374Z,101140.62
2019-06-08T16:55:03.045Z,101147.48
2019-06-08T16:57:38.296Z,101155.25
2019-06-08T17:02:45.390Z,101145.63
2019-06-08T17:05:18.066Z,101153.39
2019-06-08T17:07:50.336Z,101155.93
2019-06-08T17:10:22.999Z,101150.27
2019-06-08T17:12:55.682Z,101154.55
2019-06-08T17:15:29.840Z,101151.34
2019-06-08T17:18:03.223Z,101152.30
2019-06-08T17:20:36.303Z,101152.98
2019-06-08T17:23:09.068Z,101162.56
2019-06-08T17:25:41.954Z,101154.25
2019-06-08T17:28:14.625Z,101163.59
2019-06-08T17:30:47.314Z,101165.67
2019-06-08T17:33:20.005Z,101177.28
2019-06-08T17:35:52.677Z,101168.92
2019-06-08T17:38:24.942Z,101166.62
2019-06-08T17:40:57.611Z,101172.77
2019-06-08T17:43:30.307Z,101174.55
2019-06-08T17:46:02.971Z,101174.28
2019-06-08T17:48:36.468Z,101185.34
2019-06-08T17:51:09.358Z,101182.89
2019-06-08T17:53:43.254Z,101172.85
2019-06-08T17:56:16.361Z,101183.34
2019-06-08T17:58:49.042Z,101189.84
2019-06-08T18:01:21.724Z,101190.64
2019-06-08T18:03:54.402Z,101194.88
2019-06-08T18:06:27.237Z,101198.02
2019-06-08T18:08:59.961Z,101195.68
2019-06-08T18:11:34.183Z,101195.98
2019-06-08T18:14:07.445Z,101195.66
2019-06-08T18:16:42.166Z,101195.95
2019-06-08T18:19:30.341Z,101202.78
2019-06-08T18:22:05.823Z,101197.49
2019-06-08T18:24:39.439Z,101204.05
2019-06-08T18:27:11.967Z,101207.34
2019-06-08T18:29:46.100Z,101208.67
2019-06-08T18:32:18.536Z,101207.19
2019-06-08T18:34:50.758Z,101214.95
2019-06-08T18:37:23.398Z,101224.94
2019-06-08T18:39:57.854Z,101230.45
2019-06-08T18:42:30.285Z,101233.73
2019-06-08T18:45:02.971Z,101236.13
2019-06-08T18:47:37.581Z,101238.47
2019-06-08T18:50:09.542Z,101247.08
2019-06-08T18:52:45.342Z,101254.35
2019-06-08T18:55:18.550Z,101261.95
2019-06-08T18:57:51.320Z,101263.83
2019-06-08T19:00:34.630Z,101267.91
2019-06-08T19:03:09.049Z,101278.25
2019-06-08T19:05:45.657Z,101281.50
2019-06-08T19:08:20.228Z,101296.22
2019-06-08T19:10:52.913Z,101297.23
2019-06-08T19:13:27.116Z,101304.37
2019-06-08T19:15:59.986Z,101304.89
2019-06-08T19:18:33.288Z,101310.18
2019-06-08T19:21:07.737Z,101304.90
2019-06-08T19:23:44.882Z,101308.43
2019-06-08T19:26:22.889Z,101313.31
2019-06-08T23:29:21.232Z,101543.58
